sensor_id;sensor_type;location;lat;lon;timestamp;P1;durP1;ratioP1;P2;durP2;ratioP2
14324;SDS011;7246;51.922;4.488;2022-07-29T00:00:15;1354.8;;;999.9;;
14324;SDS011;7246;51.922;4.488;2022-07-29T00:02:15;1363.5;;;999.9;;
14324;SDS011;7246;51.922;4.488;2022-07-29T00:04:15;1354.9;;;999.9;;
14324;SDS011;7246;51.922;4.488;2022-07-29T00:06:15;1343.7;;;999.9;;
14324;SDS011;7246;51.922;4.488;2022-07-29T00:08:15;1351.9;;;999.9;;
14324;SDS011;7246;51.922;4.488;2022-07-29T00:10:15;1340.9;;;999.9;;
14324;SDS011;7246;51.922;4.488;2022-07-29T00:12:16;1341.0;;;999.9;;
14324;SDS011;7246;51.922;4.488;2022-07-29T00:14:15;1336.8;;;999.9;;
14324;SDS011;7246;51.922;4.488;2022-07-29T00:16:15;1343.9;;;999.9;;
14324;SDS011;7246;51.922;4.488;2022-07-29T00:18:15;1378.6;;;999.9;;
14324;SDS011;7246;51.922;4.488;2022-07-29T00:20:15;1412.9;;;999.9;;
14324;SDS011;7246;51.922;4.488;2022-07-29T00:22:15;1424.7;;;999.9;;
14324;SDS011;7246;51.922;4.488;2022-07-29T00:24:16;1462.0;;;999.9;;
14324;SDS011;7246;51.922;4.488;2022-07-29T00:26:15;1451.8;;;999.9;;
14324;SDS011;7246;51.922;4.488;2022-07-29T00:28:15;1503.1;;;999.9;;
14324;SDS011;7246;51.922;4.488;2022-07-29T00:30:16;1541.6;;;999.9;;
14324;SDS011;7246;51.922;4.488;2022-07-29T00:32:16;1548.0;;;999.9;;
14324;SDS011;7246;51.922;4.488;2022-07-29T00:34:16;1551.1;;;999.9;;
14324;SDS011;7246;51.922;4.488;2022-07-29T00:36:16;1559.7;;;999.9;;
14324;SDS011;7246;51.922;4.488;2022-07-29T00:38:16;1565.7;;;999.9;;
14324;SDS011;7246;51.922;4.488;2022-07-29T00:40:16;1587.0;;;999.9;;
14324;SDS011;7246;51.922;4.488;2022-07-29T00:42:16;1584.2;;;999.9;;
14324;SDS011;7246;51.922;4.488;2022-07-29T00:44:16;1563.8;;;999.9;;
14324;SDS011;7246;51.922;4.488;2022-07-29T00:46:16;1559.0;;;999.9;;
14324;SDS011;7246;51.922;4.488;2022-07-29T00:48:16;1556.9;;;999.9;;
14324;SDS011;7246;51.922;4.488;2022-07-29T00:50:16;1529.5;;;999.9;;
14324;SDS011;7246;51.922;4.488;2022-07-29T00:52:16;1517.9;;;999.9;;
14324;SDS011;7246;51.922;4.488;2022-07-29T00:54:16;1553.2;;;999.9;;
14324;SDS011;7246;51.922;4.488;2022-07-29T01:02:16;1463.3;;;999.9;;
14324;SDS011;7246;51.922;4.488;2022-07-29T01:04:16;1495.5;;;999.9;;
14324;SDS011;7246;51.922;4.488;2022-07-29T01:06:16;1501.1;;;999.9;;
14324;SDS011;7246;51.922;4.488;2022-07-29T01:08:16;1514.5;;;999.9;;
14324;SDS011;7246;51.922;4.488;2022-07-29T01:10:16;1560.5;;;999.9;;
14324;SDS011;7246;51.922;4.488;2022-07-29T01:12:17;1581.1;;;999.9;;
14324;SDS011;7246;51.922;4.488;2022-07-29T01:14:16;1611.9;;;999.9;;
14324;SDS011;7246;51.922;4.488;2022-07-29T01:16:18;1622.9;;;999.9;;
14324;SDS011;7246;51.922;4.488;2022-07-29T01:18:18;1629.9;;;999.9;;
14324;SDS011;7246;51.922;4.488;2022-07-29T01:20:18;1684.6;;;999.9;;
14324;SDS011;7246;51.922;4.488;2022-07-29T01:22:25;1702.2;;;999.9;;
14324;SDS011;7246;51.922;4.488;2022-07-29T01:24:23;1689.9;;;999.9;;
14324;SDS011;7246;51.922;4.488;2022-07-29T01:26:22;1655.2;;;999.9;;
14324;SDS011;7246;51.922;4.488;2022-07-29T01:28:20;1632.7;;;999.9;;
14324;SDS011;7246;51.922;4.488;2022-07-29T01:30:16;1597.1;;;999.9;;
14324;SDS011;7246;51.922;4.488;2022-07-29T01:32:18;1620.3;;;999.9;;
14324;SDS011;7246;51.922;4.488;2022-07-29T01:34:17;1622.4;;;999.9;;
14324;SDS011;7246;51.922;4.488;2022-07-29T01:36:17;1671.5;;;999.9;;
14324;SDS011;7246;51.922;4.488;2022-07-29T01:38:17;1673.6;;;999.9;;
14324;SDS011;7246;51.922;4.488;2022-07-29T01:40:19;1702.9;;;999.9;;
14324;SDS011;7246;51.922;4.488;2022-07-29T01:42:20;1713.0;;;999.9;;
14324;SDS011;7246;51.922;4.488;2022-07-29T01:44:17;1743.8;;;999.9;;
14324;SDS011;7246;51.922;4.488;2022-07-29T01:46:19;1761.5;;;999.9;;
14324;SDS011;7246;51.922;4.488;2022-07-29T01:48:18;1760.8;;;999.9;;
14324;SDS011;7246;51.922;4.488;2022-07-29T01:50:17;1723.0;;;999.9;;
14324;SDS011;7246;51.922;4.488;2022-07-29T01:52:19;1763.6;;;999.9;;
14324;SDS011;7246;51.922;4.488;2022-07-29T01:54:18;1821.2;;;999.9;;
14324;SDS011;7246;51.922;4.488;2022-07-29T01:56:16;1791.4;;;999.9;;
14324;SDS011;7246;51.922;4.488;2022-07-29T01:58:17;1773.1;;;999.9;;
14324;SDS011;7246;51.922;4.488;2022-07-29T02:00:17;1803.3;;;999.9;;
14324;SDS011;7246;51.922;4.488;2022-07-29T02:02:17;1812.2;;;999.9;;
14324;SDS011;7246;51.922;4.488;2022-07-29T02:04:17;1784.5;;;999.9;;
14324;SDS011;7246;51.922;4.488;2022-07-29T02:06:17;1782.5;;;999.9;;
14324;SDS011;7246;51.922;4.488;2022-07-29T02:08:17;1796.0;;;999.9;;
14324;SDS011;7246;51.922;4.488;2022-07-29T02:10:17;1813.1;;;999.9;;
14324;SDS011;7246;51.922;4.488;2022-07-29T02:12:17;1800.7;;;999.9;;
14324;SDS011;7246;51.922;4.488;2022-07-29T02:14:18;1822.9;;;999.9;;
14324;SDS011;7246;51.922;4.488;2022-07-29T02:16:17;1832.5;;;999.9;;
14324;SDS011;7246;51.922;4.488;2022-07-29T02:18:17;1803.4;;;999.9;;
14324;SDS011;7246;51.922;4.488;2022-07-29T02:20:17;1807.8;;;999.9;;
14324;SDS011;7246;51.922;4.488;2022-07-29T02:22:17;1860.4;;;999.9;;
14324;SDS011;7246;51.922;4.488;2022-07-29T02:24:17;1909.3;;;999.9;;
14324;SDS011;7246;51.922;4.488;2022-07-29T02:26:17;1838.5;;;999.9;;
14324;SDS011;7246;51.922;4.488;2022-07-29T02:28:17;1816.1;;;999.9;;
14324;SDS011;7246;51.922;4.488;2022-07-29T02:30:17;1847.9;;;999.9;;
14324;SDS011;7246;51.922;4.488;2022-07-29T02:32:17;1920.9;;;999.9;;
14324;SDS011;7246;51.922;4.488;2022-07-29T02:34:17;1894.1;;;999.9;;
14324;SDS011;7246;51.922;4.488;2022-07-29T02:36:17;1848.5;;;999.9;;
14324;SDS011;7246;51.922;4.488;2022-07-29T02:38:18;1873.7;;;999.9;;
14324;SDS011;7246;51.922;4.488;2022-07-29T02:40:17;1873.6;;;999.9;;
14324;SDS011;7246;51.922;4.488;2022-07-29T02:42:17;1888.9;;;999.9;;
14324;SDS011;7246;51.922;4.488;2022-07-29T02:44:18;1936.2;;;999.9;;
14324;SDS011;7246;51.922;4.488;2022-07-29T02:46:18;1944.9;;;999.9;;
14324;SDS011;7246;51.922;4.488;2022-07-29T02:48:17;1932.8;;;999.9;;
14324;SDS011;7246;51.922;4.488;2022-07-29T02:50:20;1884.7;;;999.9;;
14324;SDS011;7246;51.922;4.488;2022-07-29T02:52:18;1923.0;;;999.9;;
14324;SDS011;7246;51.922;4.488;2022-07-29T02:54:20;1931.8;;;999.9;;
14324;SDS011;7246;51.922;4.488;2022-07-29T02:56:17;1940.1;;;999.9;;
14324;SDS011;7246;51.922;4.488;2022-07-29T02:58:19;1891.9;;;999.9;;
14324;SDS011;7246;51.922;4.488;2022-07-29T03:00:17;1845.0;;;999.9;;
14324;SDS011;7246;51.922;4.488;2022-07-29T03:02:17;1910.0;;;999.9;;
14324;SDS011;7246;51.922;4.488;2022-07-29T03:04:17;1922.7;;;999.9;;
14324;SDS011;7246;51.922;4.488;2022-07-29T03:06:18;1907.6;;;999.9;;
14324;SDS011;7246;51.922;4.488;2022-07-29T03:08:17;1948.0;;;999.9;;
14324;SDS011;7246;51.922;4.488;2022-07-29T03:10:17;1976.9;;;999.9;;
14324;SDS011;7246;51.922;4.488;2022-07-29T03:12:17;1976.0;;;999.9;;
14324;SDS011;7246;51.922;4.488;2022-07-29T03:14:18;1999.3;;;999.9;;
14324;SDS011;7246;51.922;4.488;2022-07-29T03:16:18;1998.7;;;999.9;;
14324;SDS011;7246;51.922;4.488;2022-07-29T03:18:17;1999.9;;;999.9;;
14324;SDS011;7246;51.922;4.488;2022-07-29T03:20:17;1999.9;;;999.9;;
14324;SDS011;7246;51.922;4.488;2022-07-29T03:22:18;1996.5;;;999.9;;
14324;SDS011;7246;51.922;4.488;2022-07-29T03:24:25;1991.7;;;999.9;;
14324;SDS011;7246;51.922;4.488;2022-07-29T03:26:18;1958.3;;;999.9;;
14324;SDS011;7246;51.922;4.488;2022-07-29T03:28:17;1963.4;;;999.9;;
14324;SDS011;7246;51.922;4.488;2022-07-29T03:30:18;1955.8;;;999.9;;
14324;SDS011;7246;51.922;4.488;2022-07-29T03:32:18;1952.2;;;999.9;;
14324;SDS011;7246;51.922;4.488;2022-07-29T03:34:18;1997.4;;;999.9;;
14324;SDS011;7246;51.922;4.488;2022-07-29T03:36:18;1999.7;;;999.9;;
14324;SDS011;7246;51.922;4.488;2022-07-29T03:38:18;1973.4;;;999.9;;
14324;SDS011;7246;51.922;4.488;2022-07-29T03:40:19;1948.7;;;999.9;;
14324;SDS011;7246;51.922;4.488;2022-07-29T03:42:18;1939.5;;;999.9;;
14324;SDS011;7246;51.922;4.488;2022-07-29T03:44:18;1920.6;;;999.9;;
14324;SDS011;7246;51.922;4.488;2022-07-29T03:46:18;1970.4;;;999.9;;
14324;SDS011;7246;51.922;4.488;2022-07-29T03:48:19;1985.9;;;999.9;;
14324;SDS011;7246;51.922;4.488;2022-07-29T03:50:18;1992.8;;;999.9;;
14324;SDS011;7246;51.922;4.488;2022-07-29T03:52:18;1999.9;;;999.9;;
14324;SDS011;7246;51.922;4.488;2022-07-29T03:54:18;1999.9;;;999.9;;
14324;SDS011;7246;51.922;4.488;2022-07-29T03:56:18;1999.9;;;999.9;;
14324;SDS011;7246;51.922;4.488;2022-07-29T03:58:18;1999.9;;;999.9;;
14324;SDS011;7246;51.922;4.488;2022-07-29T04:00:18;1999.9;;;999.9;;
14324;SDS011;7246;51.922;4.488;2022-07-29T04:02:18;1999.9;;;999.9;;
14324;SDS011;7246;51.922;4.488;2022-07-29T04:04:18;1992.5;;;999.9;;
14324;SDS011;7246;51.922;4.488;2022-07-29T04:06:18;1962.9;;;999.9;;
14324;SDS011;7246;51.922;4.488;2022-07-29T04:08:18;1931.5;;;999.9;;
14324;SDS011;7246;51.922;4.488;2022-07-29T04:10:18;1943.1;;;999.9;;
14324;SDS011;7246;51.922;4.488;2022-07-29T04:12:18;1935.9;;;999.9;;
14324;SDS011;7246;51.922;4.488;2022-07-29T04:14:18;1917.3;;;999.9;;
14324;SDS011;7246;51.922;4.488;2022-07-29T04:16:18;1959.2;;;999.9;;
14324;SDS011;7246;51.922;4.488;2022-07-29T04:18:18;1958.0;;;999.9;;
14324;SDS011;7246;51.922;4.488;2022-07-29T04:20:18;1945.5;;;999.9;;
14324;SDS011;7246;51.922;4.488;2022-07-29T04:22:18;1922.2;;;999.9;;
14324;SDS011;7246;51.922;4.488;2022-07-29T04:24:18;1918.2;;;999.9;;
14324;SDS011;7246;51.922;4.488;2022-07-29T04:26:18;1922.0;;;999.9;;
14324;SDS011;7246;51.922;4.488;2022-07-29T04:28:18;1947.3;;;999.9;;
14324;SDS011;7246;51.922;4.488;2022-07-29T04:30:18;1990.2;;;999.9;;
14324;SDS011;7246;51.922;4.488;2022-07-29T04:32:18;1990.8;;;999.9;;
14324;SDS011;7246;51.922;4.488;2022-07-29T04:34:18;1956.1;;;999.9;;
14324;SDS011;7246;51.922;4.488;2022-07-29T04:36:18;1972.5;;;999.9;;
14324;SDS011;7246;51.922;4.488;2022-07-29T04:38:18;1992.0;;;999.9;;
14324;SDS011;7246;51.922;4.488;2022-07-29T04:40:18;1990.4;;;999.9;;
14324;SDS011;7246;51.922;4.488;2022-07-29T04:42:18;1966.9;;;999.9;;
14324;SDS011;7246;51.922;4.488;2022-07-29T04:44:18;1964.1;;;999.9;;
14324;SDS011;7246;51.922;4.488;2022-07-29T04:46:18;1984.0;;;999.9;;
14324;SDS011;7246;51.922;4.488;2022-07-29T04:48:18;1977.5;;;999.9;;
14324;SDS011;7246;51.922;4.488;2022-07-29T04:50:18;1993.4;;;999.9;;
14324;SDS011;7246;51.922;4.488;2022-07-29T04:52:18;1996.8;;;999.9;;
14324;SDS011;7246;51.922;4.488;2022-07-29T04:54:19;1973.3;;;999.9;;
14324;SDS011;7246;51.922;4.488;2022-07-29T04:56:18;1974.5;;;999.9;;
14324;SDS011;7246;51.922;4.488;2022-07-29T04:58:18;1956.5;;;999.9;;
14324;SDS011;7246;51.922;4.488;2022-07-29T05:00:19;1951.5;;;999.9;;
14324;SDS011;7246;51.922;4.488;2022-07-29T05:02:18;1978.0;;;999.9;;
14324;SDS011;7246;51.922;4.488;2022-07-29T05:04:19;1999.9;;;999.9;;
14324;SDS011;7246;51.922;4.488;2022-07-29T05:06:19;1999.9;;;999.9;;
14324;SDS011;7246;51.922;4.488;2022-07-29T05:08:19;1956.5;;;999.9;;
14324;SDS011;7246;51.922;4.488;2022-07-29T05:10:19;1958.4;;;999.9;;
14324;SDS011;7246;51.922;4.488;2022-07-29T05:12:19;1968.8;;;999.9;;
14324;SDS011;7246;51.922;4.488;2022-07-29T05:14:19;1960.7;;;999.9;;
14324;SDS011;7246;51.922;4.488;2022-07-29T05:16:19;1939.4;;;999.9;;
14324;SDS011;7246;51.922;4.488;2022-07-29T05:18:19;1927.3;;;999.9;;
14324;SDS011;7246;51.922;4.488;2022-07-29T05:20:19;1899.8;;;999.9;;
14324;SDS011;7246;51.922;4.488;2022-07-29T05:22:19;1899.9;;;999.9;;
14324;SDS011;7246;51.922;4.488;2022-07-29T05:24:19;1884.1;;;999.9;;
14324;SDS011;7246;51.922;4.488;2022-07-29T05:26:19;1889.2;;;999.9;;
14324;SDS011;7246;51.922;4.488;2022-07-29T05:28:19;1905.1;;;999.9;;
14324;SDS011;7246;51.922;4.488;2022-07-29T05:30:20;1870.2;;;999.9;;
14324;SDS011;7246;51.922;4.488;2022-07-29T05:32:19;1870.9;;;999.9;;
14324;SDS011;7246;51.922;4.488;2022-07-29T05:34:19;1818.1;;;999.9;;
14324;SDS011;7246;51.922;4.488;2022-07-29T05:36:19;1774.5;;;999.9;;
14324;SDS011;7246;51.922;4.488;2022-07-29T05:38:19;1750.3;;;999.9;;
14324;SDS011;7246;51.922;4.488;2022-07-29T05:40:19;1686.4;;;999.9;;
14324;SDS011;7246;51.922;4.488;2022-07-29T05:42:19;1679.3;;;999.9;;
14324;SDS011;7246;51.922;4.488;2022-07-29T05:44:19;1664.8;;;999.9;;
14324;SDS011;7246;51.922;4.488;2022-07-29T05:46:19;1666.0;;;999.9;;
14324;SDS011;7246;51.922;4.488;2022-07-29T05:48:19;1664.6;;;999.9;;
14324;SDS011;7246;51.922;4.488;2022-07-29T05:50:19;1690.0;;;999.9;;
14324;SDS011;7246;51.922;4.488;2022-07-29T05:52:19;1710.4;;;999.9;;
14324;SDS011;7246;51.922;4.488;2022-07-29T05:54:19;1716.3;;;999.9;;
14324;SDS011;7246;51.922;4.488;2022-07-29T05:56:19;1761.8;;;999.9;;
14324;SDS011;7246;51.922;4.488;2022-07-29T05:58:19;1749.7;;;999.9;;
14324;SDS011;7246;51.922;4.488;2022-07-29T06:00:19;1757.8;;;999.9;;
14324;SDS011;7246;51.922;4.488;2022-07-29T06:02:19;1748.4;;;999.9;;
14324;SDS011;7246;51.922;4.488;2022-07-29T06:04:19;1724.4;;;999.9;;
14324;SDS011;7246;51.922;4.488;2022-07-29T06:06:19;1687.2;;;999.9;;
14324;SDS011;7246;51.922;4.488;2022-07-29T06:08:19;1736.8;;;999.9;;
14324;SDS011;7246;51.922;4.488;2022-07-29T06:10:19;1772.3;;;999.9;;
14324;SDS011;7246;51.922;4.488;2022-07-29T06:12:19;1752.6;;;999.9;;
14324;SDS011;7246;51.922;4.488;2022-07-29T06:14:20;1750.8;;;999.9;;
14324;SDS011;7246;51.922;4.488;2022-07-29T06:16:19;1735.8;;;999.9;;
14324;SDS011;7246;51.922;4.488;2022-07-29T06:18:19;1707.6;;;999.9;;
14324;SDS011;7246;51.922;4.488;2022-07-29T06:20:19;1691.3;;;999.9;;
14324;SDS011;7246;51.922;4.488;2022-07-29T06:22:19;1687.9;;;999.9;;
14324;SDS011;7246;51.922;4.488;2022-07-29T06:24:19;1647.1;;;999.9;;
14324;SDS011;7246;51.922;4.488;2022-07-29T06:26:19;1670.3;;;999.9;;
14324;SDS011;7246;51.922;4.488;2022-07-29T06:28:19;1666.8;;;999.9;;
14324;SDS011;7246;51.922;4.488;2022-07-29T06:30:20;1667.9;;;999.9;;
14324;SDS011;7246;51.922;4.488;2022-07-29T06:32:19;1673.7;;;999.9;;
14324;SDS011;7246;51.922;4.488;2022-07-29T06:34:20;1644.0;;;999.9;;
14324;SDS011;7246;51.922;4.488;2022-07-29T06:36:20;1631.4;;;999.9;;
14324;SDS011;7246;51.922;4.488;2022-07-29T06:38:20;1611.7;;;999.9;;
14324;SDS011;7246;51.922;4.488;2022-07-29T06:40:20;1600.1;;;999.9;;
14324;SDS011;7246;51.922;4.488;2022-07-29T06:42:20;1628.1;;;999.9;;
14324;SDS011;7246;51.922;4.488;2022-07-29T06:44:20;1617.0;;;999.9;;
14324;SDS011;7246;51.922;4.488;2022-07-29T06:46:20;1606.4;;;999.9;;
14324;SDS011;7246;51.922;4.488;2022-07-29T06:48:20;1595.9;;;999.9;;
14324;SDS011;7246;51.922;4.488;2022-07-29T06:50:20;1581.3;;;999.9;;
14324;SDS011;7246;51.922;4.488;2022-07-29T06:52:20;1560.1;;;999.9;;
14324;SDS011;7246;51.922;4.488;2022-07-29T06:54:20;1539.6;;;999.9;;
14324;SDS011;7246;51.922;4.488;2022-07-29T06:56:20;1535.3;;;999.9;;
14324;SDS011;7246;51.922;4.488;2022-07-29T06:58:20;1491.0;;;999.9;;
14324;SDS011;7246;51.922;4.488;2022-07-29T07:00:20;1460.6;;;999.9;;
14324;SDS011;7246;51.922;4.488;2022-07-29T07:02:20;1470.6;;;999.9;;
14324;SDS011;7246;51.922;4.488;2022-07-29T07:04:20;1486.8;;;999.9;;
14324;SDS011;7246;51.922;4.488;2022-07-29T07:06:20;1532.2;;;999.9;;
14324;SDS011;7246;51.922;4.488;2022-07-29T07:08:20;1516.9;;;999.9;;
14324;SDS011;7246;51.922;4.488;2022-07-29T07:10:20;1527.8;;;999.9;;
14324;SDS011;7246;51.922;4.488;2022-07-29T07:12:20;1532.9;;;999.9;;
14324;SDS011;7246;51.922;4.488;2022-07-29T07:14:20;1531.8;;;999.9;;
14324;SDS011;7246;51.922;4.488;2022-07-29T07:16:20;1492.9;;;999.9;;
14324;SDS011;7246;51.922;4.488;2022-07-29T07:18:20;1471.6;;;999.9;;
14324;SDS011;7246;51.922;4.488;2022-07-29T07:20:20;1486.6;;;999.9;;
14324;SDS011;7246;51.922;4.488;2022-07-29T07:22:20;1427.4;;;999.9;;
14324;SDS011;7246;51.922;4.488;2022-07-29T07:24:20;1410.5;;;999.9;;
14324;SDS011;7246;51.922;4.488;2022-07-29T07:26:20;1406.2;;;999.9;;
14324;SDS011;7246;51.922;4.488;2022-07-29T07:28:20;1395.4;;;999.9;;
14324;SDS011;7246;51.922;4.488;2022-07-29T07:30:20;1379.0;;;999.9;;
14324;SDS011;7246;51.922;4.488;2022-07-29T07:32:20;1375.3;;;999.9;;
14324;SDS011;7246;51.922;4.488;2022-07-29T07:34:20;1342.6;;;999.9;;
14324;SDS011;7246;51.922;4.488;2022-07-29T07:36:20;1356.8;;;999.9;;
14324;SDS011;7246;51.922;4.488;2022-07-29T07:38:20;1374.9;;;999.9;;
14324;SDS011;7246;51.922;4.488;2022-07-29T07:40:20;1370.4;;;999.9;;
14324;SDS011;7246;51.922;4.488;2022-07-29T07:42:20;1384.1;;;999.9;;
14324;SDS011;7246;51.922;4.488;2022-07-29T07:44:20;1422.3;;;999.9;;
14324;SDS011;7246;51.922;4.488;2022-07-29T07:46:20;1403.7;;;999.9;;
14324;SDS011;7246;51.922;4.488;2022-07-29T07:48:20;1342.5;;;999.9;;
14324;SDS011;7246;51.922;4.488;2022-07-29T07:50:20;1322.3;;;999.9;;
14324;SDS011;7246;51.922;4.488;2022-07-29T07:52:21;1328.1;;;999.9;;
14324;SDS011;7246;51.922;4.488;2022-07-29T07:54:20;1348.5;;;999.9;;
14324;SDS011;7246;51.922;4.488;2022-07-29T07:56:20;1360.7;;;999.9;;
14324;SDS011;7246;51.922;4.488;2022-07-29T07:58:20;1349.8;;;999.9;;
14324;SDS011;7246;51.922;4.488;2022-07-29T08:00:21;1317.5;;;999.9;;
14324;SDS011;7246;51.922;4.488;2022-07-29T08:02:20;1332.8;;;999.9;;
14324;SDS011;7246;51.922;4.488;2022-07-29T08:04:21;1326.7;;;999.9;;
14324;SDS011;7246;51.922;4.488;2022-07-29T08:06:20;1333.5;;;999.9;;
14324;SDS011;7246;51.922;4.488;2022-07-29T08:08:21;1288.7;;;999.9;;
14324;SDS011;7246;51.922;4.488;2022-07-29T08:10:21;1221.8;;;999.9;;
14324;SDS011;7246;51.922;4.488;2022-07-29T08:12:21;1186.6;;;999.9;;
14324;SDS011;7246;51.922;4.488;2022-07-29T08:14:21;1173.5;;;999.9;;
14324;SDS011;7246;51.922;4.488;2022-07-29T08:16:21;1190.6;;;999.9;;
14324;SDS011;7246;51.922;4.488;2022-07-29T08:18:21;1160.5;;;999.9;;
14324;SDS011;7246;51.922;4.488;2022-07-29T08:20:21;1177.3;;;999.9;;
14324;SDS011;7246;51.922;4.488;2022-07-29T08:22:21;1147.3;;;999.9;;
14324;SDS011;7246;51.922;4.488;2022-07-29T08:24:21;1146.4;;;999.9;;
14324;SDS011;7246;51.922;4.488;2022-07-29T08:26:21;1134.8;;;999.9;;
14324;SDS011;7246;51.922;4.488;2022-07-29T08:28:21;1129.2;;;999.9;;
14324;SDS011;7246;51.922;4.488;2022-07-29T08:30:21;1121.4;;;999.9;;
14324;SDS011;7246;51.922;4.488;2022-07-29T08:32:21;1138.9;;;999.9;;
14324;SDS011;7246;51.922;4.488;2022-07-29T08:34:21;1155.5;;;999.9;;
14324;SDS011;7246;51.922;4.488;2022-07-29T08:36:21;1204.0;;;999.9;;
14324;SDS011;7246;51.922;4.488;2022-07-29T08:38:21;1186.9;;;999.9;;
14324;SDS011;7246;51.922;4.488;2022-07-29T08:40:21;1167.6;;;999.9;;
14324;SDS011;7246;51.922;4.488;2022-07-29T08:42:21;1157.5;;;999.9;;
14324;SDS011;7246;51.922;4.488;2022-07-29T08:44:21;1173.7;;;999.9;;
14324;SDS011;7246;51.922;4.488;2022-07-29T08:46:21;1200.7;;;999.9;;
14324;SDS011;7246;51.922;4.488;2022-07-29T08:48:22;1133.3;;;999.9;;
14324;SDS011;7246;51.922;4.488;2022-07-29T08:50:21;1112.6;;;999.9;;
14324;SDS011;7246;51.922;4.488;2022-07-29T08:52:21;1150.4;;;999.9;;
14324;SDS011;7246;51.922;4.488;2022-07-29T08:54:21;1138.6;;;999.9;;
14324;SDS011;7246;51.922;4.488;2022-07-29T08:56:21;1088.6;;;999.9;;
14324;SDS011;7246;51.922;4.488;2022-07-29T08:58:21;1157.2;;;999.9;;
14324;SDS011;7246;51.922;4.488;2022-07-29T09:00:21;1111.9;;;999.9;;
14324;SDS011;7246;51.922;4.488;2022-07-29T09:02:22;1134.8;;;999.9;;
14324;SDS011;7246;51.922;4.488;2022-07-29T09:04:21;1093.9;;;999.9;;
14324;SDS011;7246;51.922;4.488;2022-07-29T09:06:21;1046.0;;;992.9;;
14324;SDS011;7246;51.922;4.488;2022-07-29T09:08:21;1024.5;;;975.7;;
14324;SDS011;7246;51.922;4.488;2022-07-29T09:10:21;1015.1;;;966.7;;
14324;SDS011;7246;51.922;4.488;2022-07-29T09:12:21;977.0;;;930.4;;
14324;SDS011;7246;51.922;4.488;2022-07-29T09:14:21;987.2;;;940.1;;
14324;SDS011;7246;51.922;4.488;2022-07-29T09:16:21;1003.1;;;955.3;;
14324;SDS011;7246;51.922;4.488;2022-07-29T09:18:32;994.8;;;947.4;;
14324;SDS011;7246;51.922;4.488;2022-07-29T09:20:22;1026.7;;;970.3;;
14324;SDS011;7246;51.922;4.488;2022-07-29T09:22:28;1057.3;;;998.5;;
14324;SDS011;7246;51.922;4.488;2022-07-29T09:24:22;1110.4;;;999.6;;
14324;SDS011;7246;51.922;4.488;2022-07-29T09:26:21;1113.2;;;999.9;;
14324;SDS011;7246;51.922;4.488;2022-07-29T09:28:22;1185.9;;;999.9;;
14324;SDS011;7246;51.922;4.488;2022-07-29T09:30:21;1110.1;;;999.9;;
14324;SDS011;7246;51.922;4.488;2022-07-29T09:32:21;1112.8;;;999.9;;
14324;SDS011;7246;51.922;4.488;2022-07-29T09:34:23;1095.0;;;999.9;;
14324;SDS011;7246;51.922;4.488;2022-07-29T09:36:22;1061.3;;;998.2;;
14324;SDS011;7246;51.922;4.488;2022-07-29T09:38:22;1078.2;;;999.9;;
14324;SDS011;7246;51.922;4.488;2022-07-29T09:40:22;1077.3;;;999.9;;
14324;SDS011;7246;51.922;4.488;2022-07-29T09:42:27;1090.6;;;999.9;;
14324;SDS011;7246;51.922;4.488;2022-07-29T09:44:22;1148.9;;;999.9;;
14324;SDS011;7246;51.922;4.488;2022-07-29T09:46:22;1171.1;;;999.9;;
14324;SDS011;7246;51.922;4.488;2022-07-29T09:48:22;1121.5;;;999.9;;
14324;SDS011;7246;51.922;4.488;2022-07-29T09:50:22;1164.5;;;999.9;;
14324;SDS011;7246;51.922;4.488;2022-07-29T09:52:22;1085.8;;;999.9;;
14324;SDS011;7246;51.922;4.488;2022-07-29T09:54:22;1088.8;;;999.9;;
14324;SDS011;7246;51.922;4.488;2022-07-29T09:56:28;1067.1;;;999.8;;
14324;SDS011;7246;51.922;4.488;2022-07-29T09:58:22;1019.1;;;970.6;;
14324;SDS011;7246;51.922;4.488;2022-07-29T10:00:22;1067.0;;;992.9;;
14324;SDS011;7246;51.922;4.488;2022-07-29T10:02:22;1101.7;;;999.9;;
14324;SDS011;7246;51.922;4.488;2022-07-29T10:04:22;1066.2;;;999.7;;
14324;SDS011;7246;51.922;4.488;2022-07-29T10:06:22;1096.0;;;999.9;;
14324;SDS011;7246;51.922;4.488;2022-07-29T10:08:24;1172.5;;;999.9;;
14324;SDS011;7246;51.922;4.488;2022-07-29T10:10:23;1156.7;;;999.9;;
14324;SDS011;7246;51.922;4.488;2022-07-29T10:12:22;1159.8;;;999.9;;
14324;SDS011;7246;51.922;4.488;2022-07-29T10:14:22;1198.0;;;999.9;;
14324;SDS011;7246;51.922;4.488;2022-07-29T10:16:22;1184.3;;;999.9;;
14324;SDS011;7246;51.922;4.488;2022-07-29T10:18:22;1177.0;;;999.9;;
14324;SDS011;7246;51.922;4.488;2022-07-29T10:20:22;1143.5;;;999.9;;
14324;SDS011;7246;51.922;4.488;2022-07-29T10:22:22;1121.4;;;999.9;;
14324;SDS011;7246;51.922;4.488;2022-07-29T10:24:22;1147.7;;;999.9;;
14324;SDS011;7246;51.922;4.488;2022-07-29T10:26:22;1193.1;;;999.9;;
14324;SDS011;7246;51.922;4.488;2022-07-29T10:28:22;1212.7;;;999.9;;
14324;SDS011;7246;51.922;4.488;2022-07-29T10:30:23;1180.5;;;999.9;;
14324;SDS011;7246;51.922;4.488;2022-07-29T10:32:26;1176.5;;;999.9;;
14324;SDS011;7246;51.922;4.488;2022-07-29T10:34:23;1171.0;;;999.9;;
14324;SDS011;7246;51.922;4.488;2022-07-29T10:36:26;1190.9;;;999.9;;
14324;SDS011;7246;51.922;4.488;2022-07-29T10:38:28;1189.9;;;999.9;;
14324;SDS011;7246;51.922;4.488;2022-07-29T10:40:25;1161.6;;;999.9;;
14324;SDS011;7246;51.922;4.488;2022-07-29T10:42:23;1091.1;;;999.9;;
14324;SDS011;7246;51.922;4.488;2022-07-29T10:44:22;1140.4;;;999.9;;
14324;SDS011;7246;51.922;4.488;2022-07-29T10:46:22;1135.0;;;999.9;;
14324;SDS011;7246;51.922;4.488;2022-07-29T10:48:22;1081.2;;;999.9;;
14324;SDS011;7246;51.922;4.488;2022-07-29T10:50:22;1048.0;;;990.0;;
14324;SDS011;7246;51.922;4.488;2022-07-29T10:52:22;1097.6;;;999.9;;
14324;SDS011;7246;51.922;4.488;2022-07-29T10:54:35;1079.7;;;999.9;;
14324;SDS011;7246;51.922;4.488;2022-07-29T10:56:23;1059.8;;;996.6;;
14324;SDS011;7246;51.922;4.488;2022-07-29T10:58:23;1098.1;;;990.8;;
14324;SDS011;7246;51.922;4.488;2022-07-29T11:00:27;1147.8;;;999.9;;
14324;SDS011;7246;51.922;4.488;2022-07-29T11:06:23;1109.1;;;999.9;;
14324;SDS011;7246;51.922;4.488;2022-07-29T11:08:23;1071.5;;;999.9;;
14324;SDS011;7246;51.922;4.488;2022-07-29T11:10:23;1081.7;;;999.9;;
14324;SDS011;7246;51.922;4.488;2022-07-29T11:14:54;1017.4;;;968.9;;
14324;SDS011;7246;51.922;4.488;2022-07-29T11:16:23;1005.7;;;957.8;;
14324;SDS011;7246;51.922;4.488;2022-07-29T11:18:23;995.6;;;948.1;;
14324;SDS011;7246;51.922;4.488;2022-07-29T11:20:30;1011.8;;;963.6;;
14324;SDS011;7246;51.922;4.488;2022-07-29T11:22:31;986.3;;;939.2;;
14324;SDS011;7246;51.922;4.488;2022-07-29T11:24:23;1059.1;;;988.8;;
14324;SDS011;7246;51.922;4.488;2022-07-29T11:26:23;1088.6;;;999.9;;
14324;SDS011;7246;51.922;4.488;2022-07-29T11:28:23;1081.1;;;999.9;;
14324;SDS011;7246;51.922;4.488;2022-07-29T11:30:27;1072.6;;;999.9;;
14324;SDS011;7246;51.922;4.488;2022-07-29T11:32:24;1117.5;;;999.9;;
14324;SDS011;7246;51.922;4.488;2022-07-29T11:34:24;1110.4;;;999.9;;
14324;SDS011;7246;51.922;4.488;2022-07-29T11:36:23;1087.4;;;999.9;;
14324;SDS011;7246;51.922;4.488;2022-07-29T11:38:24;1104.8;;;999.9;;
14324;SDS011;7246;51.922;4.488;2022-07-29T11:40:23;1068.6;;;999.9;;
14324;SDS011;7246;51.922;4.488;2022-07-29T11:44:26;1093.4;;;999.9;;
14324;SDS011;7246;51.922;4.488;2022-07-29T11:48:23;1142.8;;;999.9;;
14324;SDS011;7246;51.922;4.488;2022-07-29T11:50:28;1166.9;;;999.9;;
14324;SDS011;7246;51.922;4.488;2022-07-29T11:52:24;1170.6;;;999.9;;
14324;SDS011;7246;51.922;4.488;2022-07-29T11:54:24;1151.5;;;999.9;;
14324;SDS011;7246;51.922;4.488;2022-07-29T11:56:23;1165.3;;;999.9;;